createdAt,value
2022-09-05T00:00:19.600Z,101681.58
2022-09-05T00:03:21.951Z,101691.14
2022-09-05T00:06:14.971Z,101689.81
2022-09-05T00:09:13.811Z,101668.60
2022-09-05T00:12:08.826Z,101683.83
2022-09-05T00:15:19.269Z,101681.13
2022-09-05T00:22:23.763Z,101684.69
2022-09-05T00:24:34.204Z,101674.87
2022-09-05T00:25:31.644Z,101687.35
2022-09-05T00:28:31.579Z,101688.48
2022-09-05T00:31:53.610Z,101687.06
2022-09-05T00:35:09.199Z,101684.58
2022-09-05T00:38:10.807Z,101681.95
2022-09-05T00:41:05.219Z,101687.27
2022-09-05T00:43:56.960Z,101688.44
2022-09-05T00:46:52.393Z,101692.17
2022-09-05T00:49:46.487Z,101693.27
2022-09-05T00:52:42.671Z,101689.48
2022-09-05T00:55:49.507Z,101694.33
2022-09-05T00:59:03.350Z,101695.27
2022-09-05T01:02:00.600Z,101693.80
2022-09-05T01:04:59.371Z,101693.95
2022-09-05T01:08:14.740Z,101692.39
2022-09-05T01:11:13.398Z,101697.39
2022-09-05T01:14:13.452Z,101694.55
2022-09-05T01:17:25.257Z,101693.13
2022-09-05T01:20:32.069Z,101678.85
2022-09-05T01:23:44.927Z,101671.02
2022-09-05T01:27:01.142Z,101689.45
2022-09-05T01:29:56.755Z,101687.23
2022-09-05T01:32:52.025Z,101681.17
2022-09-05T01:36:11.767Z,101698.61
2022-09-05T01:40:10.550Z,101704.92
2022-09-05T01:42:38.380Z,101698.34
2022-09-05T01:45:39.421Z,101699.63
2022-09-05T01:48:37.235Z,101698.34
2022-09-05T01:51:39.938Z,101697.19
2022-09-05T01:54:40.920Z,101685.15
2022-09-05T01:57:41.252Z,101701.05
2022-09-05T02:00:36.668Z,101699.19
2022-09-05T02:03:39.707Z,101700.27
2022-09-05T02:06:43.952Z,101698.81
2022-09-05T02:09:56.902Z,101700.91
2022-09-05T02:13:05.067Z,101701.52
2022-09-05T02:16:06.374Z,101704.30
2022-09-05T02:19:08.827Z,101707.61
2022-09-05T02:22:02.833Z,101709.40
2022-09-05T02:25:25.611Z,101711.52
2022-09-05T02:28:17.131Z,101714.67
2022-09-05T02:31:19.730Z,101715.59
2022-09-05T02:34:18.741Z,101712.20
2022-09-05T02:37:15.533Z,101714.59
2022-09-05T02:45:14.076Z,101713.54
2022-09-05T02:45:21.004Z,101715.29
2022-09-05T02:46:53.774Z,101716.48
2022-09-05T02:52:43.906Z,101716.40
2022-09-05T02:57:34.407Z,101707.54
2022-09-05T02:57:39.465Z,101696.66
2022-09-05T03:00:09.872Z,101716.31
2022-09-05T03:03:14.089Z,101717.91
2022-09-05T03:06:13.429Z,101712.70
2022-09-05T03:09:22.705Z,101711.04
2022-09-05T03:12:43.267Z,101715.45
2022-09-05T03:16:04.508Z,101716.59
2022-09-05T03:19:26.849Z,101719.94
2022-09-05T03:22:47.728Z,101718.95
2022-09-05T03:26:15.229Z,101719.84
2022-09-05T03:29:31.842Z,101720.69
2022-09-05T03:32:51.626Z,101723.06
2022-09-05T03:36:16.788Z,101720.64
2022-09-05T03:39:34.574Z,101722.38
2022-09-05T03:42:49.709Z,101725.60
2022-09-05T03:46:00.827Z,101724.77
2022-09-05T03:51:18.428Z,101728.61
2022-09-05T03:57:16.807Z,101730.60
2022-09-05T03:57:20.896Z,101728.77
2022-09-05T03:59:48.049Z,101728.73
2022-09-05T04:08:06.828Z,101732.34
2022-09-05T04:08:16.468Z,101729.34
2022-09-05T04:09:48.920Z,101732.36
2022-09-05T04:12:40.833Z,101735.30
2022-09-05T04:15:37.151Z,101735.09
2022-09-05T04:18:36.068Z,101742.20
2022-09-05T04:21:29.192Z,101742.77
2022-09-05T04:24:30.227Z,101742.38
2022-09-05T04:27:28.663Z,101748.20
2022-09-05T04:30:40.548Z,101745.35
2022-09-05T04:33:37.338Z,101748.43
2022-09-05T04:36:31.031Z,101751.63
2022-09-05T04:39:30.885Z,101754.19
2022-09-05T04:42:25.940Z,101752.05
2022-09-05T04:45:24.409Z,101756.06
2022-09-05T04:48:20.170Z,101758.55
2022-09-05T04:51:27.316Z,101759.59
2022-09-05T04:54:27.606Z,101763.28
2022-09-05T04:57:31.379Z,101765.42
2022-09-05T05:05:44.995Z,101766.20
2022-09-05T05:06:08.724Z,101769.17
2022-09-05T05:07:07.618Z,101769.45
2022-09-05T05:10:40.507Z,101770.84
2022-09-05T05:18:02.174Z,101776.13
2022-09-05T05:18:15.971Z,101777.43
2022-09-05T05:20:40.784Z,101781.03
2022-09-05T05:23:08.951Z,101781.98
2022-09-05T05:26:02.336Z,101789.05
2022-09-05T05:28:59.722Z,101786.29
2022-09-05T05:31:54.261Z,101788.37
2022-09-05T05:34:51.367Z,101784.43
2022-09-05T05:37:47.038Z,101787.73
2022-09-05T05:40:50.497Z,101788.73
2022-09-05T05:43:46.437Z,101787.55
2022-09-05T05:46:42.338Z,101789.55
2022-09-05T05:49:46.323Z,101790.73
2022-09-05T05:52:56.228Z,101789.95
2022-09-05T05:56:05.986Z,101795.71
2022-09-05T05:59:33.739Z,101800.73
2022-09-05T06:03:09.956Z,101797.63
2022-09-05T06:06:23.454Z,101800.92
2022-09-05T06:14:49.120Z,101799.27
2022-09-05T06:14:58.707Z,101799.23
2022-09-05T06:17:12.529Z,101797.46
2022-09-05T06:22:04.681Z,101794.16
2022-09-05T06:24:03.537Z,101793.91
2022-09-05T06:27:33.739Z,101794.45
2022-09-05T06:30:25.399Z,101795.58
2022-09-05T06:33:25.076Z,101794.85
2022-09-05T06:36:36.256Z,101795.43
2022-09-05T06:39:46.555Z,101792.36
2022-09-05T06:42:55.171Z,101793.48
2022-09-05T06:46:06.872Z,101790.65
2022-09-05T06:49:30.322Z,101797.79
2022-09-05T06:52:42.185Z,101800.20
2022-09-05T06:55:54.927Z,101801.14
2022-09-05T06:59:35.951Z,101801.95
2022-09-05T07:02:57.986Z,101797.44
2022-09-05T07:05:50.980Z,101801.51
2022-09-05T07:08:54.098Z,101792.55
2022-09-05T07:11:55.788Z,101805.78
2022-09-05T07:14:56.697Z,101809.69
2022-09-05T07:18:13.500Z,101811.66
2022-09-05T07:21:16.431Z,101811.86
2022-09-05T07:24:14.357Z,101815.65
2022-09-05T07:27:41.945Z,101819.98
2022-09-05T07:30:51.822Z,101820.67
2022-09-05T07:33:43.830Z,101803.65
2022-09-05T07:36:40.848Z,101802.82
2022-09-05T07:39:35.101Z,101840.27
2022-09-05T07:42:31.084Z,101843.58
2022-09-05T07:45:28.311Z,101847.31
2022-09-05T07:48:34.359Z,101845.80
2022-09-05T07:56:50.218Z,101851.11
2022-09-05T07:57:02.494Z,101835.02
2022-09-05T07:57:52.987Z,101846.04
2022-09-05T08:00:52.527Z,101848.52
2022-09-05T08:03:44.605Z,101850.13
2022-09-05T08:07:34.759Z,101851.99
2022-09-05T08:10:06.070Z,101849.66
2022-09-05T08:13:24.262Z,101848.95
2022-09-05T08:16:17.253Z,101839.42
2022-09-05T08:19:31.799Z,101839.31
2022-09-05T08:22:26.498Z,101835.48
2022-09-05T08:25:19.700Z,101829.06
2022-09-05T08:28:19.656Z,101832.86
2022-09-05T08:31:14.523Z,101828.39
2022-09-05T08:34:11.927Z,101825.30
2022-09-05T08:37:03.822Z,101819.80
2022-09-05T08:40:11.146Z,101817.09
2022-09-05T08:45:56.547Z,101815.52
2022-09-05T08:46:41.285Z,101799.23
2022-09-05T08:50:01.776Z,101810.00
2022-09-05T08:53:26.830Z,101803.09
2022-09-05T08:56:31.943Z,101800.92
2022-09-05T09:00:06.332Z,101798.35
2022-09-05T09:03:18.832Z,101786.36
2022-09-05T09:06:21.680Z,101795.25
2022-09-05T09:09:18.767Z,101784.66
2022-09-05T09:12:25.678Z,101799.29
2022-09-05T09:15:22.363Z,101797.42
2022-09-05T09:18:16.907Z,101797.50
2022-09-05T09:21:26.457Z,101798.86
2022-09-05T09:24:34.014Z,101782.21
2022-09-05T09:27:47.425Z,101780.75
2022-09-05T09:30:48.192Z,101791.63
2022-09-05T09:33:46.245Z,101789.76
2022-09-05T09:36:45.130Z,101784.02
2022-09-05T09:39:43.628Z,101782.41
2022-09-05T09:42:45.510Z,101780.62
2022-09-05T09:45:55.467Z,101773.21
2022-09-05T09:49:22.571Z,101775.88
2022-09-05T09:52:36.166Z,101748.98
2022-09-05T09:55:57.887Z,101776.02
2022-09-05T09:59:15.303Z,101773.05
2022-09-05T10:04:12.525Z,101767.91
2022-09-05T10:10:35.785Z,101769.22
2022-09-05T10:10:46.168Z,101757.02
2022-09-05T10:13:16.331Z,101761.11
2022-09-05T10:16:47.090Z,101731.45
2022-09-05T10:20:11.324Z,101759.23
2022-09-05T10:23:34.188Z,101756.48
2022-09-05T10:26:54.092Z,101747.63
2022-09-05T10:29:52.650Z,101748.61
2022-09-05T10:35:13.252Z,101744.23
2022-09-05T10:36:27.898Z,101748.81
2022-09-05T10:39:18.997Z,101745.20
2022-09-05T10:42:15.786Z,101746.06
2022-09-05T10:45:14.077Z,101744.93
2022-09-05T10:48:14.861Z,101736.25
2022-09-05T10:51:11.438Z,101739.38
2022-09-05T10:54:38.036Z,101737.52
2022-09-05T10:57:38.314Z,101736.48
2022-09-05T11:02:22.589Z,101732.77
2022-09-05T11:03:57.295Z,101740.29
2022-09-05T11:06:59.656Z,101737.65
2022-09-05T11:10:02.545Z,101723.04
2022-09-05T11:13:12.524Z,101736.52
2022-09-05T11:16:18.177Z,101731.70
2022-09-05T11:19:16.047Z,101730.38
2022-09-05T11:22:22.756Z,101731.45
2022-09-05T11:25:28.179Z,101735.08
2022-09-05T11:28:49.369Z,101735.33
2022-09-05T11:34:21.114Z,101731.16
2022-09-05T11:39:56.071Z,101722.45
2022-09-05T11:40:02.339Z,101725.45
2022-09-05T11:42:42.442Z,101707.39
2022-09-05T11:46:11.049Z,101719.33
2022-09-05T11:49:32.640Z,101718.09
2022-09-05T11:52:53.901Z,101714.66
2022-09-05T11:56:28.746Z,101714.73
2022-09-05T11:59:51.074Z,101719.66
2022-09-05T12:07:26.369Z,101718.17
2022-09-05T12:10:46.446Z,101712.02
2022-09-05T12:13:48.165Z,101699.80
2022-09-05T12:16:57.926Z,101710.02
2022-09-05T12:19:59.177Z,101707.23
2022-09-05T12:22:59.135Z,101698.27
2022-09-05T12:27:41.162Z,101696.98
2022-09-05T12:29:34.816Z,101694.98
2022-09-05T12:35:47.034Z,101701.27
2022-09-05T12:36:12.860Z,101690.77
2022-09-05T12:41:01.006Z,101701.02
2022-09-05T12:41:45.125Z,101712.88
2022-09-05T12:42:24.158Z,101701.33
2022-09-05T12:45:24.126Z,101692.32
2022-09-05T12:48:38.904Z,101695.16
2022-09-05T12:51:46.705Z,101692.05
2022-09-05T12:54:46.416Z,101673.16
2022-09-05T13:02:27.785Z,101668.06
2022-09-05T13:03:09.165Z,101689.20
2022-09-05T13:04:17.942Z,101685.52
2022-09-05T13:07:12.673Z,101690.27
2022-09-05T13:12:45.267Z,101684.82
2022-09-05T13:14:55.449Z,101685.34
2022-09-05T13:16:39.592Z,101679.08
2022-09-05T13:19:37.546Z,101676.14
2022-09-05T13:22:29.368Z,101684.95
2022-09-05T13:25:25.097Z,101680.23
2022-09-05T13:28:17.788Z,101674.72
2022-09-05T13:37:55.761Z,101668.61
2022-09-05T13:38:07.594Z,101667.48
2022-09-05T13:38:28.870Z,101662.52
2022-09-05T13:40:58.354Z,101657.31
2022-09-05T13:43:48.794Z,101659.63
2022-09-05T13:46:48.360Z,101646.38
2022-09-05T13:49:44.889Z,101655.46
2022-09-05T13:52:40.553Z,101652.07
2022-09-05T13:55:43.454Z,101635.59
2022-09-05T13:58:42.814Z,101646.77
2022-09-05T14:02:26.397Z,101639.97
2022-09-05T14:05:35.573Z,101636.70
2022-09-05T14:09:35.250Z,101628.98
2022-09-05T14:12:06.925Z,101637.47
2022-09-05T14:15:10.608Z,101633.02
2022-09-05T14:18:20.641Z,101627.95
2022-09-05T14:21:17.963Z,101623.10
2022-09-05T14:24:16.836Z,101624.05
2022-09-05T14:27:17.290Z,101625.60
2022-09-05T14:32:14.429Z,101623.19
2022-09-05T14:37:36.029Z,101623.94
2022-09-05T14:37:50.882Z,101619.79
2022-09-05T14:40:29.686Z,101620.02
2022-09-05T14:43:47.737Z,101615.29
2022-09-05T14:47:02.681Z,101609.05
2022-09-05T14:49:58.920Z,101612.96
2022-09-05T14:52:35.477Z,101616.30
2022-09-05T14:55:21.012Z,101611.45
2022-09-05T15:02:42.400Z,101604.23
2022-09-05T15:02:50.647Z,101602.65
2022-09-05T15:06:59.786Z,101595.71
2022-09-05T15:12:14.875Z,101592.35
2022-09-05T15:12:39.630Z,101594.31
2022-09-05T15:15:25.820Z,101592.27
2022-09-05T15:18:02.144Z,101575.98
2022-09-05T15:20:37.584Z,101596.33
2022-09-05T15:23:16.453Z,101594.35
2022-09-05T15:25:51.354Z,101594.21
2022-09-05T15:28:32.665Z,101585.21
2022-09-05T15:31:08.269Z,101593.20
2022-09-05T15:33:44.156Z,101589.24
2022-09-05T15:36:31.877Z,101583.45
2022-09-05T15:39:23.630Z,101576.80
2022-09-05T15:42:13.558Z,101579.02
2022-09-05T15:45:08.572Z,101579.63
2022-09-05T15:47:41.830Z,101562.23
2022-09-05T15:50:19.030Z,101571.39
2022-09-05T15:52:56.186Z,101571.27
2022-09-05T15:55:30.036Z,101570.99
2022-09-05T15:58:06.308Z,101570.55
2022-09-05T16:00:51.285Z,101573.84
2022-09-05T16:04:01.189Z,101568.69
2022-09-05T16:10:33.694Z,101567.08
2022-09-05T16:10:47.083Z,101565.98
2022-09-05T16:20:34.570Z,101567.45
2022-09-05T16:23:18.225Z,101568.79
2022-09-05T16:23:26.204Z,101553.16
2022-09-05T16:24:08.137Z,101559.67
2022-09-05T16:26:46.702Z,101559.88
2022-09-05T16:29:26.234Z,101559.94
2022-09-05T16:32:18.385Z,101559.59
2022-09-05T16:34:57.437Z,101558.27
2022-09-05T16:37:38.870Z,101558.65
2022-09-05T16:40:21.485Z,101560.38
2022-09-05T16:42:57.173Z,101556.29
2022-09-05T16:45:39.730Z,101555.59
2022-09-05T16:48:32.638Z,101555.95
2022-09-05T16:51:16.172Z,101550.93
2022-09-05T16:53:59.120Z,101541.88
2022-09-05T16:56:36.011Z,101550.89
2022-09-05T16:59:13.522Z,101547.05
2022-09-05T17:02:07.428Z,101551.71
2022-09-05T17:05:06.693Z,101546.92
2022-09-05T17:08:00.532Z,101549.98
2022-09-05T17:10:42.278Z,101555.79
2022-09-05T17:13:32.206Z,101560.64
2022-09-05T17:16:06.681Z,101559.92
2022-09-05T17:18:42.920Z,101556.73
2022-09-05T17:22:55.345Z,101556.62
2022-09-05T17:29:18.002Z,101547.23
2022-09-05T17:29:32.868Z,101560.02
2022-09-05T17:33:19.123Z,101559.11
2022-09-05T17:36:16.821Z,101558.41
2022-09-05T17:38:59.676Z,101558.23
2022-09-05T17:41:55.258Z,101562.22
2022-09-05T17:44:30.301Z,101561.53
2022-09-05T17:47:15.280Z,101562.61
2022-09-05T17:49:46.910Z,101564.98
2022-09-05T17:52:24.865Z,101568.27
2022-09-05T17:54:57.709Z,101568.05
2022-09-05T17:57:41.491Z,101570.75
2022-09-05T18:00:49.570Z,101575.46
2022-09-05T18:04:16.532Z,101556.23
2022-09-05T18:07:00.396Z,101569.34
2022-09-05T18:13:13.191Z,101566.38
2022-09-05T18:16:12.421Z,101581.23
2022-09-05T18:19:28.632Z,101591.16
2022-09-05T18:21:53.185Z,101592.14
2022-09-05T18:24:36.340Z,101598.52
2022-09-05T18:27:43.689Z,101597.73
2022-09-05T18:30:29.959Z,101601.27
2022-09-05T18:33:53.537Z,101594.73
2022-09-05T18:36:36.397Z,101598.13
2022-09-05T18:39:43.568Z,101603.20
2022-09-05T18:42:33.450Z,101591.41
2022-09-05T18:45:16.034Z,101588.33
2022-09-05T18:47:58.854Z,101602.92
2022-09-05T18:50:36.382Z,101605.98
2022-09-05T18:53:25.218Z,101610.00
2022-09-05T18:56:20.689Z,101609.58
2022-09-05T18:59:12.468Z,101607.97
2022-09-05T19:01:58.062Z,101611.90
2022-09-05T19:04:41.670Z,101611.50
2022-09-05T19:07:22.770Z,101612.70
2022-09-05T19:10:34.917Z,101597.61
2022-09-05T19:13:01.314Z,101608.97
2022-09-05T19:15:48.200Z,101592.50
2022-09-05T19:18:26.095Z,101610.17
2022-09-05T19:21:12.075Z,101599.91
2022-09-05T19:23:51.118Z,101604.27
2022-09-05T19:26:24.783Z,101600.14
2022-09-05T19:36:51.101Z,101601.92
2022-09-05T19:37:07.200Z,101606.27
2022-09-05T19:37:09.248Z,101583.41
2022-09-05T19:37:48.822Z,101597.30
2022-09-05T19:45:39.394Z,101599.47
2022-09-05T19:47:33.802Z,101590.91
2022-09-05T19:47:44.709Z,101596.95
2022-09-05T19:49:11.131Z,101593.25
2022-09-05T19:51:44.468Z,101593.01
2022-09-05T19:54:31.633Z,101588.98
2022-09-05T19:57:06.552Z,101584.61
2022-09-05T19:59:39.272Z,101588.78
2022-09-05T20:02:20.363Z,101586.44
2022-09-05T20:04:55.184Z,101593.90
2022-09-05T20:07:29.992Z,101587.38
2022-09-05T20:10:05.919Z,101591.48
2022-09-05T20:12:39.673Z,101592.89
2022-09-05T20:15:25.244Z,101603.17
2022-09-05T20:18:24.509Z,101596.87
2022-09-05T20:21:07.376Z,101594.46
2022-09-05T20:23:43.525Z,101594.34
2022-09-05T20:26:18.236Z,101589.37
2022-09-05T20:28:54.786Z,101590.86
2022-09-05T20:31:33.209Z,101593.03
2022-09-05T20:34:14.941Z,101590.19
2022-09-05T20:43:09.820Z,101587.55
2022-09-05T20:43:30.609Z,101582.08
2022-09-05T20:43:32.823Z,101578.08
2022-09-05T20:46:00.804Z,101579.30
2022-09-05T20:54:07.326Z,101586.39
2022-09-05T20:54:22.370Z,101579.87
2022-09-05T20:54:43.951Z,101581.08
2022-09-05T20:57:18.765Z,101582.52
2022-09-05T20:59:51.630Z,101584.29
2022-09-05T21:02:27.326Z,101571.38
2022-09-05T21:05:19.818Z,101586.36
2022-09-05T21:08:15.783Z,101584.30
2022-09-05T21:10:55.668Z,101581.80
2022-09-05T21:13:30.876Z,101582.66
2022-09-05T21:16:04.468Z,101587.02
2022-09-05T21:18:41.824Z,101583.72
2022-09-05T21:21:28.312Z,101582.73
2022-09-05T21:24:17.796Z,101588.11
2022-09-05T21:26:51.915Z,101586.54
2022-09-05T21:29:33.307Z,101587.08
2022-09-05T21:32:10.911Z,101589.59
2022-09-05T21:34:47.331Z,101591.13
2022-09-05T21:37:20.263Z,101577.31
2022-09-05T21:40:00.551Z,101589.98
2022-09-05T21:44:39.483Z,101592.44
2022-09-05T21:47:42.055Z,101593.25
2022-09-05T21:48:26.556Z,101596.70
2022-09-05T21:51:02.658Z,101595.75
2022-09-05T21:56:19.124Z,101596.95
2022-09-05T21:59:33.667Z,101599.65
2022-09-05T21:59:40.057Z,101602.52
2022-09-05T22:02:18.004Z,101604.27
2022-09-05T22:04:54.131Z,101596.23
2022-09-05T22:07:32.820Z,101600.00
2022-09-05T22:10:07.824Z,101600.85
2022-09-05T22:12:40.454Z,101611.75
2022-09-05T22:15:28.476Z,101608.48
2022-09-05T22:18:17.823Z,101605.11
2022-09-05T22:21:31.758Z,101605.24
2022-09-05T22:23:48.404Z,101605.27
2022-09-05T22:26:22.613Z,101608.23
2022-09-05T22:28:56.088Z,101607.99
2022-09-05T22:31:28.785Z,101607.07
2022-09-05T22:34:01.419Z,101600.23
2022-09-05T22:36:35.419Z,101599.38
2022-09-05T22:39:08.363Z,101604.36
2022-09-05T22:41:41.492Z,101599.17
2022-09-05T22:44:14.375Z,101596.80
2022-09-05T22:46:46.450Z,101595.31
2022-09-05T22:49:18.662Z,101595.48
2022-09-05T22:51:50.977Z,101593.45
2022-09-05T22:54:23.958Z,101590.36
2022-09-05T22:56:56.111Z,101579.40
2022-09-05T22:59:28.140Z,101577.35
2022-09-05T23:02:00.184Z,101589.34
2022-09-05T23:04:32.497Z,101594.86
2022-09-05T23:07:05.855Z,101591.38
2022-09-05T23:09:37.842Z,101587.20
2022-09-05T23:12:10.101Z,101593.15
2022-09-05T23:14:42.358Z,101594.02
2022-09-05T23:17:15.699Z,101593.19
2022-09-05T23:19:49.162Z,101593.23
2022-09-05T23:22:22.061Z,101595.91
2022-09-05T23:24:54.469Z,101594.10
2022-09-05T23:27:26.969Z,101588.73
2022-09-05T23:30:00.041Z,101586.53
2022-09-05T23:32:32.595Z,101574.66
2022-09-05T23:35:05.425Z,101590.27
2022-09-05T23:37:37.491Z,101586.71
2022-09-05T23:40:11.470Z,101593.14
2022-09-05T23:42:43.888Z,101590.65
2022-09-05T23:45:16.018Z,101590.08
2022-09-05T23:47:48.225Z,101588.76
2022-09-05T23:51:43.341Z,101578.75
2022-09-05T23:54:15.404Z,101586.02
2022-09-05T23:56:49.876Z,101584.02
2022-09-05T23:59:22.072Z,101581.77
